Terminal Aerodrome Forecast
Issued by NWS

Home | Current Version | Previous Version | Graphics & Text | Print | Product List | Glossary On
Versions: 1 2 3 4 5 6 7 8 9 10 11 12 13 14 15 16 17 18 19 20 21 22 23 24 25 26 27 28 29 30 31
000
FTUS43 KLOT 272328
TAFDPA
TAF
KDPA 272328Z 2800/2824 01010KT P6SM FEW250
     FM280100 36007KT P6SM SKC
     FM280400 VRB03KT P6SM SKC
     FM281500 19008KT P6SM FEW050 BKN250
     FM282100 18011G16KT P6SM VCTS BKN045CB BKN100=

USA.gov is the U.S. government's official web portal to all federal, state and local government web resources and services.